LFRB/BES METAR and TAF weather

Enter ICAO airport designator
Station Type Date Time Source
LFRB METAR 2020/03/29 15:30 UTC NOAA

LFRB 291530Z AUTO 05025G35KT 9999 BKN042 OVC050 07/M01 Q1033 NOSIG


Station Type Date Time Source
LFRB Decoded METAR 2020/03/29 15:30 UTC NOAA

Brest, France (LFRB) 48-27N 004-25W 103M
Mar 29, 2020 - 11:30 AM EDT / 2020.03.29 1530 UTC
Wind: from the NE (050 degrees) at 29 MPH (25 KT) gusting to 40 MPH (35 KT):0
Visibility: greater than 7 mile(s):0
Sky conditions: overcast
Temperature: 44 F (7 C)
Dew Point: 30 F (-1 C)
Relative Humidity: 56%
Pressure (altimeter): 30.50 in. Hg (1033 hPa)
ob: LFRB 291530Z AUTO 05025G35KT 9999 BKN042 OVC050 07/M01 Q1033 NOSIG
cycle: 15

Station Type Date Time Source
LFRB TAF 2020/03/29 12:42 UTC NOAA

TAF LFRB 291100Z 2912/3018 05020G35KT 9999 BKN030 PROB30
TEMPO 2917/2922 -SHRA PROB30
TEMPO 3009/3012 -SHRA

Example: see airport list